African Goshawk — C6BT7 — position and weather

sailwx.info

Track history (hours):
 
Tides and Currents Weather Stations Pressure Air Temp Water Temp Dewpoint Dewpoint Depression Visibility Wind Speed Wind Dir Waves Ship Positions

African Goshawk

Last reported at 2017-Oct-23 03:54 UTC. Time now 2017-Nov-19 18:15 UTC.
Position N 01°19' E 103°19'.
Warning: this ship's position is 27 days out of date.

Length 180 m; draft 9.5 m.

Type: Cargo ship. MMSI: 311000361.

Date/timePositionNaut miles runAvg speedWind from/ knotsBaromVisibWave heightAir tempDewpointWater temp
2017-Oct-23 03:54N 01°19' E 103°19'6 9.1
2017-Oct-23 03:16N 01°15' E 103°24'3 9.1
2017-Oct-23 02:58N 01°14' E 103°26'5 9.8
2017-Oct-23 02:30N 01°13' E 103°31'510.7
2017-Oct-23 01:59N 01°12' E 103°36'2 5.1
2017-Oct-23 01:30N 01°11' E 103°38'2 3.2
2017-Oct-23 00:59N 01°11' E 103°40'3 6.2
2017-Oct-23 00:30N 01°09' E 103°42'3 6.2
2017-Oct-23 00:00N 01°09' E 103°46'4 7.8
2017-Oct-22 23:30N 01°11' E 103°49'4 7.7
2017-Oct-22 23:00N 01°13' E 103°53'4 7.4
2017-Oct-22 22:29N 01°14' E 103°56'5 9.5
2017-Oct-22 21:59N 01°15' E 104°01'  
Track history (hours):
 
Tides and Currents Weather Stations Pressure Air Temp Water Temp Dewpoint Dewpoint Depression Visibility Wind Speed Wind Dir Waves Ship Positions

African Goshawk

Last reported at 2017-Oct-23 03:54 UTC. Time now 2017-Nov-19 18:15 UTC.
Position N 01°19' E 103°19'.
Warning: this ship's position is 27 days out of date.

Length 180 m; draft 9.5 m.

Type: Cargo ship. MMSI: 311000361.

Date/timePositionNaut miles runAvg speedWind from/ knotsBaromVisibWave heightAir tempDewpointWater temp
2017-Oct-23 03:54N 01°19' E 103°19'6 9.1
2017-Oct-23 03:16N 01°15' E 103°24'3 9.1
2017-Oct-23 02:58N 01°14' E 103°26'5 9.8
2017-Oct-23 02:30N 01°13' E 103°31'510.7
2017-Oct-23 01:59N 01°12' E 103°36'2 5.1
2017-Oct-23 01:30N 01°11' E 103°38'2 3.2
2017-Oct-23 00:59N 01°11' E 103°40'3 6.2
2017-Oct-23 00:30N 01°09' E 103°42'3 6.2
2017-Oct-23 00:00N 01°09' E 103°46'4 7.8
2017-Oct-22 23:30N 01°11' E 103°49'4 7.7
2017-Oct-22 23:00N 01°13' E 103°53'4 7.4
2017-Oct-22 22:29N 01°14' E 103°56'5 9.5
2017-Oct-22 21:59N 01°15' E 104°01'  

Dump ship's entire track history